sensor_id;sensor_type;location;lat;lon;timestamp;pressure;altitude;pressure_sealevel;temperature;humidity
58018;BME280;43810;50.860;19.226;2023-03-22T00:00:48;98528.44;;;5.66;91.48
58018;BME280;43810;50.860;19.226;2023-03-22T00:03:19;98529.97;;;5.81;91.74
58018;BME280;43810;50.860;19.226;2023-03-22T00:05:45;98533.81;;;5.97;91.86
58018;BME280;43810;50.860;19.226;2023-03-22T00:08:11;98537.59;;;6.04;91.35
58018;BME280;43810;50.860;19.226;2023-03-22T00:10:39;98535.81;;;6.14;91.24
58018;BME280;43810;50.860;19.226;2023-03-22T00:13:05;98525.97;;;6.28;90.93
58018;BME280;43810;50.860;19.226;2023-03-22T00:15:31;98523.09;;;6.38;90.40
58018;BME280;43810;50.860;19.226;2023-03-22T00:17:57;98524.66;;;6.39;89.93
58018;BME280;43810;50.860;19.226;2023-03-22T00:20:24;98521.22;;;6.38;89.97
58018;BME280;43810;50.860;19.226;2023-03-22T00:22:50;98524.81;;;6.42;89.62
58018;BME280;43810;50.860;19.226;2023-03-22T00:25:16;98529.38;;;6.51;89.66
58018;BME280;43810;50.860;19.226;2023-03-22T00:27:42;98521.00;;;6.57;89.16
58018;BME280;43810;50.860;19.226;2023-03-22T00:30:08;98520.25;;;6.57;88.47
58018;BME280;43810;50.860;19.226;2023-03-22T00:32:35;98518.56;;;6.61;89.00
58018;BME280;43810;50.860;19.226;2023-03-22T00:35:02;98516.25;;;6.68;88.57
58018;BME280;43810;50.860;19.226;2023-03-22T00:37:27;98510.81;;;6.64;88.65
58018;BME280;43810;50.860;19.226;2023-03-22T00:39:59;98515.78;;;6.66;88.49
58018;BME280;43810;50.860;19.226;2023-03-22T00:42:24;98506.06;;;6.75;88.67
58018;BME280;43810;50.860;19.226;2023-03-22T00:44:50;98509.00;;;6.73;88.43
58018;BME280;43810;50.860;19.226;2023-03-22T00:47:16;98511.19;;;6.80;87.92
58018;BME280;43810;50.860;19.226;2023-03-22T00:49:42;98503.25;;;6.80;88.35
58018;BME280;43810;50.860;19.226;2023-03-22T00:52:07;98502.38;;;6.85;87.76
58018;BME280;43810;50.860;19.226;2023-03-22T00:54:33;98500.38;;;6.90;87.66
58018;BME280;43810;50.860;19.226;2023-03-22T00:56:59;98503.81;;;6.91;87.94
58018;BME280;43810;50.860;19.226;2023-03-22T00:59:25;98503.69;;;6.96;87.55
58018;BME280;43810;50.860;19.226;2023-03-22T01:01:52;98497.75;;;6.90;87.44
58018;BME280;43810;50.860;19.226;2023-03-22T01:04:18;98498.34;;;6.87;86.98
58018;BME280;43810;50.860;19.226;2023-03-22T01:06:53;98488.97;;;6.81;87.23
58018;BME280;43810;50.860;19.226;2023-03-22T01:09:24;98487.28;;;6.76;86.68
58018;BME280;43810;50.860;19.226;2023-03-22T01:11:53;98486.41;;;6.59;86.58
58018;BME280;43810;50.860;19.226;2023-03-22T01:14:19;98486.66;;;6.49;86.47
58018;BME280;43810;50.860;19.226;2023-03-22T01:16:45;98479.31;;;6.37;86.93
58018;BME280;43810;50.860;19.226;2023-03-22T01:19:11;98479.53;;;6.18;86.14
58018;BME280;43810;50.860;19.226;2023-03-22T01:21:36;98470.38;;;5.93;86.41
58018;BME280;43810;50.860;19.226;2023-03-22T01:24:02;98475.63;;;5.71;85.95
58018;BME280;43810;50.860;19.226;2023-03-22T01:26:28;98467.28;;;5.55;85.97
58018;BME280;43810;50.860;19.226;2023-03-22T01:28:54;98475.41;;;5.31;85.96
58018;BME280;43810;50.860;19.226;2023-03-22T01:31:20;98455.84;;;5.10;85.90
58018;BME280;43810;50.860;19.226;2023-03-22T01:33:46;98453.81;;;4.93;86.46
58018;BME280;43810;50.860;19.226;2023-03-22T01:36:11;98453.72;;;4.71;86.37
58018;BME280;43810;50.860;19.226;2023-03-22T01:38:38;98452.47;;;4.55;86.71
58018;BME280;43810;50.860;19.226;2023-03-22T01:41:03;98451.38;;;4.42;86.88
58018;BME280;43810;50.860;19.226;2023-03-22T01:43:29;98445.41;;;4.37;87.55
58018;BME280;43810;50.860;19.226;2023-03-22T01:45:55;98454.97;;;4.33;88.05
58018;BME280;43810;50.860;19.226;2023-03-22T01:48:28;98451.44;;;4.37;88.66
58018;BME280;43810;50.860;19.226;2023-03-22T01:51:06;98460.63;;;4.40;89.06
58018;BME280;43810;50.860;19.226;2023-03-22T01:53:35;98456.44;;;4.39;88.75
58018;BME280;43810;50.860;19.226;2023-03-22T01:56:03;98457.59;;;4.33;88.55
58018;BME280;43810;50.860;19.226;2023-03-22T01:58:29;98455.66;;;4.38;89.45
58018;BME280;43810;50.860;19.226;2023-03-22T02:00:56;98464.25;;;4.44;89.66
58018;BME280;43810;50.860;19.226;2023-03-22T02:03:31;98457.22;;;4.53;89.40
58018;BME280;43810;50.860;19.226;2023-03-22T02:05:59;98462.50;;;4.67;89.84
58018;BME280;43810;50.860;19.226;2023-03-22T02:08:25;98451.50;;;4.78;89.84
58018;BME280;43810;50.860;19.226;2023-03-22T02:10:51;98457.06;;;4.90;89.95
58018;BME280;43810;50.860;19.226;2023-03-22T02:16:26;98444.94;;;5.03;89.56
58018;BME280;43810;50.860;19.226;2023-03-22T02:41:57;98417.16;;;4.83;89.39
58018;BME280;43810;50.860;19.226;2023-03-22T02:44:28;98411.91;;;4.70;89.25
58018;BME280;43810;50.860;19.226;2023-03-22T02:47:02;98406.84;;;4.59;89.50
58018;BME280;43810;50.860;19.226;2023-03-22T02:49:34;98410.94;;;4.52;89.87
58018;BME280;43810;50.860;19.226;2023-03-22T02:52:04;98411.53;;;4.49;89.91
58018;BME280;43810;50.860;19.226;2023-03-22T02:54:37;98412.22;;;4.41;89.87
58018;BME280;43810;50.860;19.226;2023-03-22T02:59:32;98400.00;;;4.17;89.08
58018;BME280;43810;50.860;19.226;2023-03-22T03:02:02;98410.72;;;4.07;88.97
58018;BME280;43810;50.860;19.226;2023-03-22T03:04:30;98403.50;;;3.99;89.14
58018;BME280;43810;50.860;19.226;2023-03-22T03:06:59;98410.28;;;4.00;89.63
58018;BME280;43810;50.860;19.226;2023-03-22T03:09:27;98413.84;;;4.09;90.20
58018;BME280;43810;50.860;19.226;2023-03-22T03:11:53;98408.00;;;4.26;90.71
58018;BME280;43810;50.860;19.226;2023-03-22T03:14:29;98411.34;;;4.32;90.99
58018;BME280;43810;50.860;19.226;2023-03-22T03:19:40;98414.84;;;4.41;91.20
58018;BME280;43810;50.860;19.226;2023-03-22T03:27:41;98427.31;;;5.04;91.92
58018;BME280;43810;50.860;19.226;2023-03-22T03:30:24;98414.38;;;5.16;91.73
58018;BME280;43810;50.860;19.226;2023-03-22T03:32:59;98415.91;;;5.30;91.67
58018;BME280;43810;50.860;19.226;2023-03-22T03:35:32;98420.66;;;5.42;91.42
58018;BME280;43810;50.860;19.226;2023-03-22T03:38:03;98411.56;;;5.48;91.28
58018;BME280;43810;50.860;19.226;2023-03-22T03:40:34;98408.72;;;5.58;91.23
58018;BME280;43810;50.860;19.226;2023-03-22T03:43:02;98413.25;;;5.66;91.28
58018;BME280;43810;50.860;19.226;2023-03-22T03:45:29;98413.59;;;5.73;91.35
58018;BME280;43810;50.860;19.226;2023-03-22T03:47:59;98412.41;;;5.80;91.51
58018;BME280;43810;50.860;19.226;2023-03-22T03:50:25;98424.56;;;5.89;91.47
58018;BME280;43810;50.860;19.226;2023-03-22T03:52:52;98425.69;;;5.97;90.97
58018;BME280;43810;50.860;19.226;2023-03-22T03:55:18;98419.72;;;6.05;91.49
58018;BME280;43810;50.860;19.226;2023-03-22T03:57:44;98415.75;;;6.16;91.18
58018;BME280;43810;50.860;19.226;2023-03-22T04:00:10;98419.47;;;6.15;91.01
58018;BME280;43810;50.860;19.226;2023-03-22T04:02:39;98416.50;;;6.17;91.00
58018;BME280;43810;50.860;19.226;2023-03-22T04:05:05;98413.59;;;6.18;91.03
58018;BME280;43810;50.860;19.226;2023-03-22T04:07:32;98407.06;;;6.24;91.20
58018;BME280;43810;50.860;19.226;2023-03-22T04:09:58;98411.75;;;6.27;90.96
58018;BME280;43810;50.860;19.226;2023-03-22T04:12:24;98410.81;;;6.32;90.98
58018;BME280;43810;50.860;19.226;2023-03-22T04:14:50;98413.31;;;6.28;91.16
58018;BME280;43810;50.860;19.226;2023-03-22T04:17:16;98413.94;;;6.34;91.28
58018;BME280;43810;50.860;19.226;2023-03-22T04:19:42;98413.53;;;6.40;91.01
58018;BME280;43810;50.860;19.226;2023-03-22T04:22:09;98409.84;;;6.50;90.99
58018;BME280;43810;50.860;19.226;2023-03-22T04:24:42;98414.81;;;6.52;91.29
58018;BME280;43810;50.860;19.226;2023-03-22T04:27:08;98417.75;;;6.50;90.98
58018;BME280;43810;50.860;19.226;2023-03-22T04:29:34;98414.06;;;6.60;90.92
58018;BME280;43810;50.860;19.226;2023-03-22T04:32:03;98424.13;;;6.58;90.76
58018;BME280;43810;50.860;19.226;2023-03-22T04:34:29;98410.16;;;6.57;90.70
58018;BME280;43810;50.860;19.226;2023-03-22T04:36:55;98419.94;;;6.57;90.64
58018;BME280;43810;50.860;19.226;2023-03-22T04:39:21;98415.00;;;6.64;90.53
58018;BME280;43810;50.860;19.226;2023-03-22T04:41:47;98414.06;;;6.60;90.11
58018;BME280;43810;50.860;19.226;2023-03-22T04:44:13;98406.78;;;6.65;90.37
58018;BME280;43810;50.860;19.226;2023-03-22T04:46:38;98400.84;;;6.60;90.29
58018;BME280;43810;50.860;19.226;2023-03-22T04:49:04;98399.13;;;6.55;90.07
58018;BME280;43810;50.860;19.226;2023-03-22T04:51:30;98402.84;;;6.54;90.47
58018;BME280;43810;50.860;19.226;2023-03-22T04:53:57;98400.38;;;6.58;90.47
58018;BME280;43810;50.860;19.226;2023-03-22T04:56:23;98402.53;;;6.56;90.46
58018;BME280;43810;50.860;19.226;2023-03-22T04:58:49;98396.06;;;6.70;90.96
58018;BME280;43810;50.860;19.226;2023-03-22T05:01:16;98397.94;;;6.78;90.38
58018;BME280;43810;50.860;19.226;2023-03-22T05:03:43;98402.31;;;6.83;90.43
58018;BME280;43810;50.860;19.226;2023-03-22T05:06:10;98396.78;;;6.93;90.09
58018;BME280;43810;50.860;19.226;2023-03-22T05:08:36;98400.19;;;7.02;89.71
58018;BME280;43810;50.860;19.226;2023-03-22T05:11:06;98400.69;;;7.04;89.63
58018;BME280;43810;50.860;19.226;2023-03-22T05:13:33;98398.03;;;7.13;89.69
58018;BME280;43810;50.860;19.226;2023-03-22T05:15:58;98400.25;;;7.20;88.72
58018;BME280;43810;50.860;19.226;2023-03-22T05:18:24;98403.66;;;7.29;88.51
58018;BME280;43810;50.860;19.226;2023-03-22T05:20:51;98402.41;;;7.35;88.31
58018;BME280;43810;50.860;19.226;2023-03-22T05:23:18;98406.63;;;7.44;88.18
58018;BME280;43810;50.860;19.226;2023-03-22T05:25:45;98408.19;;;7.45;88.08
58018;BME280;43810;50.860;19.226;2023-03-22T05:28:12;98393.22;;;7.58;87.50
58018;BME280;43810;50.860;19.226;2023-03-22T05:30:39;98398.97;;;7.60;87.65
58018;BME280;43810;50.860;19.226;2023-03-22T05:33:05;98402.25;;;7.66;87.25
58018;BME280;43810;50.860;19.226;2023-03-22T05:35:31;98403.63;;;7.72;86.73
58018;BME280;43810;50.860;19.226;2023-03-22T05:37:58;98397.25;;;7.81;86.42
58018;BME280;43810;50.860;19.226;2023-03-22T05:40:24;98388.69;;;7.84;86.14
58018;BME280;43810;50.860;19.226;2023-03-22T05:42:50;98390.09;;;7.82;86.09
58018;BME280;43810;50.860;19.226;2023-03-22T05:45:16;98405.97;;;7.90;86.04
58018;BME280;43810;50.860;19.226;2023-03-22T05:47:42;98403.00;;;7.83;85.59
58018;BME280;43810;50.860;19.226;2023-03-22T05:50:09;98395.19;;;7.96;85.63
58018;BME280;43810;50.860;19.226;2023-03-22T05:52:35;98402.66;;;7.94;85.84
58018;BME280;43810;50.860;19.226;2023-03-22T05:55:01;98398.78;;;8.00;85.89
58018;BME280;43810;50.860;19.226;2023-03-22T05:57:27;98403.25;;;8.08;85.68
58018;BME280;43810;50.860;19.226;2023-03-22T05:59:54;98405.75;;;8.13;85.48
58018;BME280;43810;50.860;19.226;2023-03-22T06:02:20;98402.91;;;8.18;85.33
58018;BME280;43810;50.860;19.226;2023-03-22T06:04:46;98407.25;;;8.31;85.29
58018;BME280;43810;50.860;19.226;2023-03-22T06:07:12;98397.28;;;8.28;85.10
58018;BME280;43810;50.860;19.226;2023-03-22T06:09:38;98408.81;;;8.32;85.26
58018;BME280;43810;50.860;19.226;2023-03-22T06:12:04;98406.47;;;8.31;85.04
58018;BME280;43810;50.860;19.226;2023-03-22T06:14:30;98398.84;;;8.29;84.81
58018;BME280;43810;50.860;19.226;2023-03-22T06:16:55;98408.44;;;8.42;84.59
58018;BME280;43810;50.860;19.226;2023-03-22T06:19:21;98399.41;;;8.43;84.45
58018;BME280;43810;50.860;19.226;2023-03-22T06:21:48;98407.50;;;8.47;84.48
58018;BME280;43810;50.860;19.226;2023-03-22T06:24:14;98401.25;;;8.51;84.22
58018;BME280;43810;50.860;19.226;2023-03-22T06:26:40;98404.66;;;8.52;84.38
58018;BME280;43810;50.860;19.226;2023-03-22T06:29:06;98399.97;;;8.57;84.29
58018;BME280;43810;50.860;19.226;2023-03-22T06:31:31;98404.44;;;8.66;83.72
58018;BME280;43810;50.860;19.226;2023-03-22T06:33:57;98405.94;;;8.84;83.58
58018;BME280;43810;50.860;19.226;2023-03-22T06:36:23;98405.59;;;8.85;82.86
58018;BME280;43810;50.860;19.226;2023-03-22T06:38:48;98404.63;;;8.90;82.29
58018;BME280;43810;50.860;19.226;2023-03-22T06:41:14;98411.19;;;8.92;81.64
58018;BME280;43810;50.860;19.226;2023-03-22T06:43:40;98411.72;;;9.07;81.08
58018;BME280;43810;50.860;19.226;2023-03-22T06:46:06;98405.28;;;9.08;80.81
58018;BME280;43810;50.860;19.226;2023-03-22T06:48:31;98405.56;;;9.15;80.54
58018;BME280;43810;50.860;19.226;2023-03-22T06:50:57;98400.75;;;9.38;79.74
58018;BME280;43810;50.860;19.226;2023-03-22T06:53:24;98412.72;;;9.44;80.03
58018;BME280;43810;50.860;19.226;2023-03-22T06:55:50;98416.88;;;9.53;79.35
58018;BME280;43810;50.860;19.226;2023-03-22T06:58:17;98422.09;;;9.62;79.00
58018;BME280;43810;50.860;19.226;2023-03-22T07:00:42;98415.81;;;9.66;78.70
58018;BME280;43810;50.860;19.226;2023-03-22T07:03:08;98417.03;;;9.69;78.14
58018;BME280;43810;50.860;19.226;2023-03-22T07:05:34;98414.06;;;9.70;77.42
58018;BME280;43810;50.860;19.226;2023-03-22T07:07:59;98418.22;;;9.59;77.48
58018;BME280;43810;50.860;19.226;2023-03-22T07:10:25;98413.28;;;9.70;77.56
58018;BME280;43810;50.860;19.226;2023-03-22T07:12:51;98415.47;;;9.68;77.36
58018;BME280;43810;50.860;19.226;2023-03-22T07:15:17;98422.28;;;9.57;76.97
58018;BME280;43810;50.860;19.226;2023-03-22T07:17:44;98420.94;;;9.51;77.41
58018;BME280;43810;50.860;19.226;2023-03-22T07:20:10;98417.25;;;9.43;77.43
58018;BME280;43810;50.860;19.226;2023-03-22T07:22:35;98414.25;;;9.45;78.03
58018;BME280;43810;50.860;19.226;2023-03-22T07:25:01;98417.00;;;9.36;78.16
58018;BME280;43810;50.860;19.226;2023-03-22T07:27:27;98416.28;;;9.48;77.88
58018;BME280;43810;50.860;19.226;2023-03-22T07:29:53;98423.78;;;9.46;77.86
58018;BME280;43810;50.860;19.226;2023-03-22T07:32:18;98422.28;;;9.57;78.34
58018;BME280;43810;50.860;19.226;2023-03-22T07:34:44;98422.66;;;9.67;78.84
58018;BME280;43810;50.860;19.226;2023-03-22T07:37:10;98423.75;;;9.87;78.27
58018;BME280;43810;50.860;19.226;2023-03-22T07:39:39;98408.50;;;9.96;77.96
58018;BME280;43810;50.860;19.226;2023-03-22T07:42:04;98403.69;;;10.11;77.59
58018;BME280;43810;50.860;19.226;2023-03-22T07:44:31;98413.66;;;10.26;76.88
58018;BME280;43810;50.860;19.226;2023-03-22T07:46:57;98411.69;;;10.35;76.51
58018;BME280;43810;50.860;19.226;2023-03-22T07:49:23;98408.50;;;10.54;76.37
58018;BME280;43810;50.860;19.226;2023-03-22T07:51:48;98396.53;;;10.60;76.32
58018;BME280;43810;50.860;19.226;2023-03-22T07:54:14;98405.84;;;10.66;75.92
58018;BME280;43810;50.860;19.226;2023-03-22T07:56:40;98405.06;;;10.90;74.77
58018;BME280;43810;50.860;19.226;2023-03-22T07:59:07;98401.59;;;11.13;73.76
58018;BME280;43810;50.860;19.226;2023-03-22T08:01:32;98408.38;;;11.23;72.46
58018;BME280;43810;50.860;19.226;2023-03-22T08:03:58;98403.50;;;11.25;73.72
58018;BME280;43810;50.860;19.226;2023-03-22T08:06:24;98398.09;;;11.49;74.05
58018;BME280;43810;50.860;19.226;2023-03-22T08:08:50;98403.69;;;11.72;72.41
58018;BME280;43810;50.860;19.226;2023-03-22T08:11:15;98404.56;;;11.92;72.88
58018;BME280;43810;50.860;19.226;2023-03-22T08:13:41;98399.19;;;12.20;72.78
58018;BME280;43810;50.860;19.226;2023-03-22T08:16:07;98394.53;;;12.01;72.21
58018;BME280;43810;50.860;19.226;2023-03-22T08:18:33;98389.13;;;12.13;71.63
58018;BME280;43810;50.860;19.226;2023-03-22T08:20:59;98388.97;;;12.22;71.97
58018;BME280;43810;50.860;19.226;2023-03-22T08:23:26;98376.25;;;12.15;70.72
58018;BME280;43810;50.860;19.226;2023-03-22T08:25:51;98378.56;;;12.01;71.45
58018;BME280;43810;50.860;19.226;2023-03-22T08:28:18;98375.13;;;12.01;70.68
58018;BME280;43810;50.860;19.226;2023-03-22T08:30:44;98371.09;;;12.22;71.51
58018;BME280;43810;50.860;19.226;2023-03-22T08:33:11;98365.94;;;12.45;70.73
58018;BME280;43810;50.860;19.226;2023-03-22T08:35:37;98375.56;;;12.81;69.20
58018;BME280;43810;50.860;19.226;2023-03-22T08:38:03;98375.53;;;12.97;68.51
58018;BME280;43810;50.860;19.226;2023-03-22T08:40:29;98372.53;;;12.99;68.25
58018;BME280;43810;50.860;19.226;2023-03-22T08:42:55;98369.44;;;13.16;67.86
58018;BME280;43810;50.860;19.226;2023-03-22T08:45:21;98371.88;;;13.05;67.48
58018;BME280;43810;50.860;19.226;2023-03-22T08:47:47;98357.38;;;13.22;67.66
58018;BME280;43810;50.860;19.226;2023-03-22T08:50:13;98353.88;;;13.37;67.17
58018;BME280;43810;50.860;19.226;2023-03-22T08:52:39;98348.94;;;13.58;67.24
58018;BME280;43810;50.860;19.226;2023-03-22T08:55:05;98354.53;;;13.92;64.96
58018;BME280;43810;50.860;19.226;2023-03-22T08:57:31;98361.00;;;13.72;66.17
58018;BME280;43810;50.860;19.226;2023-03-22T08:59:57;98353.91;;;13.79;65.96
58018;BME280;43810;50.860;19.226;2023-03-22T09:02:23;98357.47;;;13.87;65.20
58018;BME280;43810;50.860;19.226;2023-03-22T09:04:49;98364.81;;;13.93;64.88
58018;BME280;43810;50.860;19.226;2023-03-22T09:07:15;98378.78;;;14.06;63.37
58018;BME280;43810;50.860;19.226;2023-03-22T09:09:42;98367.81;;;14.11;63.85
58018;BME280;43810;50.860;19.226;2023-03-22T09:12:08;98370.56;;;13.92;63.54
58018;BME280;43810;50.860;19.226;2023-03-22T09:14:34;98352.81;;;14.03;63.91
58018;BME280;43810;50.860;19.226;2023-03-22T09:17:00;98360.69;;;13.96;65.88
58018;BME280;43810;50.860;19.226;2023-03-22T09:19:26;98358.06;;;14.19;65.33
58018;BME280;43810;50.860;19.226;2023-03-22T09:21:52;98361.03;;;14.36;62.99
58018;BME280;43810;50.860;19.226;2023-03-22T09:24:18;98358.00;;;14.64;63.77
58018;BME280;43810;50.860;19.226;2023-03-22T09:26:44;98345.47;;;14.68;62.94
58018;BME280;43810;50.860;19.226;2023-03-22T09:29:12;98353.13;;;14.70;63.02
58018;BME280;43810;50.860;19.226;2023-03-22T09:31:38;98349.72;;;14.73;62.95
58018;BME280;43810;50.860;19.226;2023-03-22T09:34:03;98346.38;;;15.06;64.58
58018;BME280;43810;50.860;19.226;2023-03-22T09:36:30;98351.97;;;15.57;61.63
58018;BME280;43810;50.860;19.226;2023-03-22T09:38:56;98349.66;;;15.93;60.80
58018;BME280;43810;50.860;19.226;2023-03-22T09:42:06;98341.47;;;16.19;60.11
58018;BME280;43810;50.860;19.226;2023-03-22T09:44:13;98330.06;;;16.29;59.54
58018;BME280;43810;50.860;19.226;2023-03-22T09:46:43;98337.13;;;16.51;57.66
58018;BME280;43810;50.860;19.226;2023-03-22T09:49:18;98333.81;;;16.65;58.57
58018;BME280;43810;50.860;19.226;2023-03-22T09:51:49;98333.91;;;16.83;57.30
58018;BME280;43810;50.860;19.226;2023-03-22T09:54:16;98334.69;;;16.87;57.01
58018;BME280;43810;50.860;19.226;2023-03-22T09:56:46;98327.81;;;16.89;56.86
58018;BME280;43810;50.860;19.226;2023-03-22T10:02:29;98327.50;;;17.02;55.28
58018;BME280;43810;50.860;19.226;2023-03-22T10:09:52;98317.47;;;16.95;57.08
58018;BME280;43810;50.860;19.226;2023-03-22T10:12:34;98320.53;;;16.90;57.62
58018;BME280;43810;50.860;19.226;2023-03-22T10:15:03;98317.19;;;17.18;56.91
58018;BME280;43810;50.860;19.226;2023-03-22T10:17:30;98313.78;;;17.24;55.67
58018;BME280;43810;50.860;19.226;2023-03-22T10:22:35;98317.69;;;17.45;56.39
58018;BME280;43810;50.860;19.226;2023-03-22T10:25:03;98305.75;;;17.32;54.98
58018;BME280;43810;50.860;19.226;2023-03-22T10:27:30;98306.50;;;17.28;55.29
58018;BME280;43810;50.860;19.226;2023-03-22T10:32:38;98307.72;;;17.49;57.00
58018;BME280;43810;50.860;19.226;2023-03-22T10:35:05;98313.22;;;18.06;54.66
58018;BME280;43810;50.860;19.226;2023-03-22T10:37:32;98302.06;;;18.00;54.29
58018;BME280;43810;50.860;19.226;2023-03-22T10:40:00;98300.91;;;18.01;53.13
58018;BME280;43810;50.860;19.226;2023-03-22T10:42:34;98298.22;;;18.26;52.91
58018;BME280;43810;50.860;19.226;2023-03-22T10:45:21;98295.91;;;18.21;52.70
58018;BME280;43810;50.860;19.226;2023-03-22T10:47:57;98296.28;;;18.48;53.95
58018;BME280;43810;50.860;19.226;2023-03-22T10:50:26;98297.03;;;18.69;52.68
58018;BME280;43810;50.860;19.226;2023-03-22T10:52:54;98289.25;;;19.07;51.01
58018;BME280;43810;50.860;19.226;2023-03-22T10:55:23;98293.50;;;18.94;52.05
58018;BME280;43810;50.860;19.226;2023-03-22T11:00:24;98289.31;;;18.79;52.24
58018;BME280;43810;50.860;19.226;2023-03-22T11:02:56;98287.44;;;18.44;53.65
58018;BME280;43810;50.860;19.226;2023-03-22T11:05:23;98273.97;;;18.58;53.08
58018;BME280;43810;50.860;19.226;2023-03-22T11:07:50;98270.09;;;18.80;53.43
58018;BME280;43810;50.860;19.226;2023-03-22T11:10:26;98270.50;;;18.68;54.34
58018;BME280;43810;50.860;19.226;2023-03-22T11:12:53;98267.75;;;18.96;51.93
58018;BME280;43810;50.860;19.226;2023-03-22T11:15:29;98264.28;;;18.89;51.30
58018;BME280;43810;50.860;19.226;2023-03-22T11:18:03;98271.94;;;19.01;50.07
58018;BME280;43810;50.860;19.226;2023-03-22T11:20:30;98268.41;;;19.15;50.94
58018;BME280;43810;50.860;19.226;2023-03-22T11:22:59;98266.31;;;19.51;52.09
58018;BME280;43810;50.860;19.226;2023-03-22T11:25:25;98252.69;;;19.79;51.02
58018;BME280;43810;50.860;19.226;2023-03-22T11:27:53;98252.78;;;20.13;48.84
58018;BME280;43810;50.860;19.226;2023-03-22T11:32:47;98240.97;;;19.37;48.64
58018;BME280;43810;50.860;19.226;2023-03-22T11:37:59;98242.22;;;19.26;48.84
58018;BME280;43810;50.860;19.226;2023-03-22T11:40:27;98245.72;;;19.23;50.69
58018;BME280;43810;50.860;19.226;2023-03-22T11:45:35;98223.78;;;19.17;49.75
58018;BME280;43810;50.860;19.226;2023-03-22T11:48:06;98226.97;;;18.94;51.00
58018;BME280;43810;50.860;19.226;2023-03-22T11:50:37;98218.47;;;19.03;50.12
58018;BME280;43810;50.860;19.226;2023-03-22T11:53:05;98217.31;;;19.70;50.41
58018;BME280;43810;50.860;19.226;2023-03-22T11:55:31;98221.00;;;19.90;49.34
58018;BME280;43810;50.860;19.226;2023-03-22T11:58:00;98214.59;;;20.18;49.11
58018;BME280;43810;50.860;19.226;2023-03-22T12:00:27;98222.66;;;20.22;49.54
58018;BME280;43810;50.860;19.226;2023-03-22T12:02:54;98205.34;;;20.15;46.52
58018;BME280;43810;50.860;19.226;2023-03-22T12:05:23;98213.44;;;19.74;49.33
58018;BME280;43810;50.860;19.226;2023-03-22T12:07:51;98205.75;;;19.73;49.04
58018;BME280;43810;50.860;19.226;2023-03-22T12:10:20;98204.84;;;19.90;49.72
58018;BME280;43810;50.860;19.226;2023-03-22T12:12:52;98209.31;;;20.04;46.65
58018;BME280;43810;50.860;19.226;2023-03-22T12:15:22;98207.75;;;20.06;48.00
58018;BME280;43810;50.860;19.226;2023-03-22T12:20:26;98211.16;;;20.55;48.25
58018;BME280;43810;50.860;19.226;2023-03-22T12:22:56;98203.91;;;20.45;46.53
58018;BME280;43810;50.860;19.226;2023-03-22T12:25:24;98198.28;;;20.29;47.44
58018;BME280;43810;50.860;19.226;2023-03-22T12:28:05;98195.44;;;20.05;47.93
58018;BME280;43810;50.860;19.226;2023-03-22T12:30:39;98200.34;;;20.17;48.57
58018;BME280;43810;50.860;19.226;2023-03-22T12:33:26;98198.63;;;20.72;46.73
58018;BME280;43810;50.860;19.226;2023-03-22T12:35:56;98192.88;;;20.70;45.76
58018;BME280;43810;50.860;19.226;2023-03-22T12:38:26;98181.50;;;20.51;45.65
58018;BME280;43810;50.860;19.226;2023-03-22T12:40:53;98178.19;;;20.37;46.61
58018;BME280;43810;50.860;19.226;2023-03-22T12:45:56;98172.94;;;20.91;46.29
58018;BME280;43810;50.860;19.226;2023-03-22T12:48:28;98178.03;;;21.12;46.57
58018;BME280;43810;50.860;19.226;2023-03-22T12:50:59;98175.41;;;21.32;43.87
58018;BME280;43810;50.860;19.226;2023-03-22T12:53:27;98177.31;;;21.38;44.64
58018;BME280;43810;50.860;19.226;2023-03-22T12:55:54;98169.84;;;21.92;43.00
58018;BME280;43810;50.860;19.226;2023-03-22T12:58:22;98168.22;;;21.99;40.49
58018;BME280;43810;50.860;19.226;2023-03-22T13:00:56;98170.16;;;21.75;42.03
58018;BME280;43810;50.860;19.226;2023-03-22T13:05:58;98164.97;;;22.07;39.90
58018;BME280;43810;50.860;19.226;2023-03-22T13:08:24;98154.94;;;22.27;39.33
58018;BME280;43810;50.860;19.226;2023-03-22T13:16:02;98146.97;;;21.97;40.71
58018;BME280;43810;50.860;19.226;2023-03-22T13:21:11;98149.91;;;21.09;42.54
58018;BME280;43810;50.860;19.226;2023-03-22T13:24:24;98156.72;;;21.44;42.47
58018;BME280;43810;50.860;19.226;2023-03-22T13:26:29;98151.28;;;21.71;40.93
58018;BME280;43810;50.860;19.226;2023-03-22T13:28:57;98143.13;;;21.51;40.81
58018;BME280;43810;50.860;19.226;2023-03-22T13:31:36;98149.97;;;21.56;42.88
58018;BME280;43810;50.860;19.226;2023-03-22T13:34:03;98143.75;;;21.82;40.41
58018;BME280;43810;50.860;19.226;2023-03-22T13:36:29;98134.25;;;21.74;40.16
58018;BME280;43810;50.860;19.226;2023-03-22T13:38:59;98142.56;;;21.10;42.42
58018;BME280;43810;50.860;19.226;2023-03-22T13:41:30;98143.94;;;21.21;43.41
58018;BME280;43810;50.860;19.226;2023-03-22T13:43:56;98132.19;;;21.58;42.23
58018;BME280;43810;50.860;19.226;2023-03-22T13:48:56;98131.38;;;21.38;42.25
58018;BME280;43810;50.860;19.226;2023-03-22T13:51:36;98131.34;;;20.54;43.24
58018;BME280;43810;50.860;19.226;2023-03-22T13:54:05;98130.75;;;21.00;44.52
58018;BME280;43810;50.860;19.226;2023-03-22T13:58:58;98122.25;;;22.18;40.22
58018;BME280;43810;50.860;19.226;2023-03-22T14:03:50;98119.41;;;22.81;38.20
58018;BME280;43810;50.860;19.226;2023-03-22T14:06:31;98124.59;;;23.12;39.08
58018;BME280;43810;50.860;19.226;2023-03-22T14:09:01;98118.34;;;22.95;36.63
58018;BME280;43810;50.860;19.226;2023-03-22T14:14:17;98116.66;;;21.86;39.48
58018;BME280;43810;50.860;19.226;2023-03-22T14:16:50;98119.53;;;21.29;40.91
58018;BME280;43810;50.860;19.226;2023-03-22T14:19:22;98123.25;;;20.54;41.39
58018;BME280;43810;50.860;19.226;2023-03-22T14:21:50;98111.13;;;20.01;43.62
58018;BME280;43810;50.860;19.226;2023-03-22T14:24:18;98110.63;;;20.13;42.64